Time;durP1;ratioP1;P1;durP2;ratioP2;P2;SDS_P1;SDS_P2;PMS_P1;PMS_P2;Temp;Humidity;BMP_temperature;BMP_pressure;BME280_temperature;BME280_humidity;BME280_pressure;Samples;Min_cycle;Max_cycle;Signal;HPM_P1;HPM_P2
2021/10/30 00:00:40;;;;;;;57.05;35.60;;;8.80;99.90;;;;;;4879778;29;20049;-80
2021/10/30 00:03:07;;;;;;;59.55;35.45;;;8.70;99.90;;;;;;4880465;29;20067;-79
2021/10/30 00:05:37;;;;;;;53.95;33.97;;;8.60;99.90;;;;;;4905151;29;20048;-86
2021/10/30 00:08:04;;;;;;;50.45;33.33;;;8.70;99.90;;;;;;4898866;29;20063;-85
2021/10/30 00:10:32;;;;;;;55.65;33.90;;;8.70;99.90;;;;;;4914686;29;20075;-83
2021/10/30 00:12:59;;;;;;;52.58;34.78;;;8.70;99.90;;;;;;4899062;29;20048;-83
2021/10/30 00:15:27;;;;;;;55.45;34.33;;;8.60;99.90;;;;;;4914256;29;20052;-83
2021/10/30 00:17:54;;;;;;;59.60;35.60;;;8.60;99.90;;;;;;4882983;29;20052;-81
2021/10/30 00:20:21;;;;;;;49.15;33.90;;;8.40;99.90;;;;;;4899077;29;20099;-82
2021/10/30 00:22:49;;;;;;;59.38;35.53;;;8.40;99.90;;;;;;4900695;29;20155;-86
2021/10/30 00:25:17;;;;;;;57.53;35.75;;;8.10;99.90;;;;;;4900247;29;20154;-85
2021/10/30 00:27:44;;;;;;;64.72;38.38;;;8.30;99.90;;;;;;4899296;29;20066;-84
2021/10/30 00:30:12;;;;;;;62.80;35.67;;;8.20;99.90;;;;;;4898780;29;20079;-84
2021/10/30 00:32:39;;;;;;;51.92;33.92;;;8.10;99.90;;;;;;4900009;29;20060;-87
2021/10/30 00:35:07;;;;;;;60.05;35.58;;;8.30;99.90;;;;;;4914343;29;20060;-85
2021/10/30 00:37:34;;;;;;;50.05;33.47;;;8.20;99.90;;;;;;4915387;29;20100;-90
2021/10/30 00:40:03;;;;;;;51.92;33.40;;;8.40;99.90;;;;;;4914506;29;20127;-83
2021/10/30 00:42:30;;;;;;;53.25;32.45;;;8.60;99.90;;;;;;4899645;29;20056;-86
2021/10/30 00:44:58;;;;;;;51.97;32.40;;;8.50;99.90;;;;;;4899008;29;20056;-80
2021/10/30 00:47:25;;;;;;;54.47;33.97;;;8.60;99.90;;;;;;4914181;29;20040;-83
2021/10/30 00:49:53;;;;;;;55.28;33.70;;;8.10;99.90;;;;;;4913999;29;20056;-82
2021/10/30 00:52:21;;;;;;;48.88;33.25;;;8.30;99.90;;;;;;4898340;29;20123;-81
2021/10/30 00:54:52;;;;;;;51.70;34.70;;;8.50;99.90;;;;;;4898451;29;20066;-81
2021/10/30 00:57:20;;;;;;;52.90;33.88;;;8.50;99.90;;;;;;4915408;29;20055;-85
2021/10/30 00:59:48;;;;;;;57.63;34.65;;;8.50;99.90;;;;;;4898186;29;20058;-82
2021/10/30 01:02:16;;;;;;;59.92;34.58;;;8.20;99.90;;;;;;4897352;29;20471;-83
2021/10/30 01:04:44;;;;;;;59.58;32.78;;;8.20;99.90;;;;;;4913207;29;20411;-80
2021/10/30 01:07:11;;;;;;;55.67;35.80;;;8.30;99.90;;;;;;4898081;29;20059;-81
2021/10/30 01:09:39;;;;;;;51.22;33.97;;;8.30;99.90;;;;;;4898021;29;20122;-84
2021/10/30 01:12:08;;;;;;;49.72;32.78;;;8.30;99.90;;;;;;4913143;29;20147;-82
2021/10/30 01:14:37;;;;;;;56.97;35.20;;;8.20;99.90;;;;;;4913066;29;20067;-81
2021/10/30 01:17:07;;;;;;;56.75;36.88;;;8.10;99.90;;;;;;4913904;29;20143;-80
2021/10/30 01:19:34;;;;;;;50.60;33.20;;;8.10;99.90;;;;;;4883349;29;20151;-80
2021/10/30 01:22:03;;;;;;;53.95;34.00;;;8.20;99.90;;;;;;4882974;29;20139;-81
2021/10/30 01:24:31;;;;;;;52.00;34.83;;;8.10;99.90;;;;;;4897894;29;20123;-84
2021/10/30 01:26:59;;;;;;;49.67;33.35;;;8.00;99.90;;;;;;4913572;29;20143;-83
2021/10/30 01:29:27;;;;;;;52.95;33.30;;;8.00;99.90;;;;;;4915287;29;20059;-88
2021/10/30 01:31:55;;;;;;;55.83;33.70;;;7.80;99.90;;;;;;4898230;29;20123;-84
2021/10/30 01:34:28;;;;;;;52.70;34.42;;;7.90;99.90;;;;;;4915090;29;20052;-85
2021/10/30 01:36:56;;;;;;;52.83;33.15;;;7.90;99.90;;;;;;4913547;29;20135;-85
2021/10/30 01:39:24;;;;;;;58.28;34.30;;;8.00;99.90;;;;;;4915656;29;20044;-82
2021/10/30 01:41:53;;;;;;;45.47;30.60;;;7.70;99.90;;;;;;4897923;29;20487;-82
2021/10/30 01:44:20;;;;;;;45.10;31.50;;;7.50;99.90;;;;;;4913975;29;20064;-81
2021/10/30 01:46:47;;;;;;;45.92;29.75;;;7.70;99.90;;;;;;4913322;29;20115;-81
2021/10/30 01:49:15;;;;;;;55.47;30.42;;;7.90;99.90;;;;;;4882763;29;20124;-90
2021/10/30 01:51:42;;;;;;;49.38;30.60;;;7.80;99.90;;;;;;4899447;29;20041;-81
2021/10/30 01:54:10;;;;;;;47.58;30.17;;;7.70;99.90;;;;;;4899436;29;20048;-85
2021/10/30 01:56:37;;;;;;;47.75;31.73;;;7.80;99.90;;;;;;4899307;29;20068;-85
2021/10/30 01:59:04;;;;;;;45.63;29.85;;;7.80;99.90;;;;;;4900226;29;20088;-84
2021/10/30 02:01:33;;;;;;;46.72;29.73;;;8.10;99.90;;;;;;4867389;29;20040;-80
2021/10/30 02:04:01;;;;;;;42.70;31.00;;;7.80;99.90;;;;;;4898379;29;20049;-79
2021/10/30 02:06:29;;;;;;;53.67;32.35;;;8.00;99.90;;;;;;4914150;29;20063;-80
2021/10/30 02:08:56;;;;;;;50.95;31.83;;;8.10;99.90;;;;;;4916644;29;20052;-78
2021/10/30 02:11:23;;;;;;;47.13;31.55;;;7.90;99.90;;;;;;4900711;29;20115;-80
2021/10/30 02:13:50;;;;;;;48.08;31.48;;;8.00;99.90;;;;;;4917416;29;20108;-79
2021/10/30 02:16:18;;;;;;;49.17;32.20;;;7.90;99.90;;;;;;4916760;29;20141;-84
2021/10/30 02:18:46;;;;;;;49.00;31.73;;;7.90;99.90;;;;;;4901237;29;20052;-83
2021/10/30 02:21:13;;;;;;;49.88;30.92;;;7.70;99.90;;;;;;4901627;29;20044;-83
2021/10/30 02:23:47;;;;;;;51.45;31.27;;;7.90;99.90;;;;;;4917313;29;20051;-82
2021/10/30 02:26:14;;;;;;;49.90;30.45;;;7.70;99.90;;;;;;4918129;29;20482;-81
2021/10/30 02:28:42;;;;;;;49.90;32.08;;;7.70;99.90;;;;;;4918631;29;20079;-81
2021/10/30 02:31:09;;;;;;;49.55;32.63;;;7.70;99.90;;;;;;4902598;29;20067;-90
2021/10/30 02:33:37;;;;;;;51.67;31.13;;;7.70;99.90;;;;;;4917736;29;20095;-81
2021/10/30 02:36:04;;;;;;;45.58;29.92;;;7.60;99.90;;;;;;4919217;29;20044;-82
2021/10/30 03:09:48;;;;;;;37.83;24.63;;;7.50;99.90;;;;;;3327200;23;20137;-85
2021/10/30 03:12:18;;;;;;;39.40;25.15;;;7.50;99.90;;;;;;4938551;29;20047;-84
2021/10/30 03:14:46;;;;;;;45.67;26.67;;;7.40;99.90;;;;;;4938667;29;20122;-80
2021/10/30 03:17:13;;;;;;;37.72;25.88;;;7.20;99.90;;;;;;4954002;29;20057;-84
2021/10/30 03:19:41;;;;;;;33.10;24.00;;;7.10;99.90;;;;;;4939070;29;20421;-83
2021/10/30 03:22:08;;;;;;;46.63;27.17;;;7.10;99.90;;;;;;4954229;29;20118;-86
2021/10/30 03:32:49;;;;;;;42.10;26.77;;;7.10;99.90;;;;;;4938898;29;20043;-84
2021/10/30 03:35:16;;;;;;;50.78;28.50;;;6.90;99.90;;;;;;4962189;29;20043;-86
2021/10/30 03:37:45;;;;;;;41.25;27.83;;;6.90;99.90;;;;;;4941352;29;20110;-87
2021/10/30 03:40:13;;;;;;;35.75;27.13;;;6.90;99.90;;;;;;4970123;28;20118;-85
2021/10/30 03:42:40;;;;;;;46.90;27.42;;;7.00;99.90;;;;;;4976991;28;20129;-85
2021/10/30 03:45:09;;;;;;;44.60;28.42;;;6.90;99.90;;;;;;4976656;28;20058;-88
2021/10/30 03:47:36;;;;;;;42.17;27.48;;;6.90;99.90;;;;;;4961922;28;20098;-85
2021/10/30 03:50:10;;;;;;;39.47;27.67;;;6.90;99.90;;;;;;4961729;28;20069;-90
2021/10/30 03:52:38;;;;;;;41.75;27.73;;;6.80;99.90;;;;;;4960114;28;20070;-89
2021/10/30 03:55:07;;;;;;;37.95;25.83;;;6.80;99.90;;;;;;4975791;28;20046;-83
2021/10/30 03:57:35;;;;;;;40.05;27.08;;;6.70;99.90;;;;;;4942389;28;20086;-83
2021/10/30 04:00:08;;;;;;;39.85;26.88;;;6.70;99.90;;;;;;4959075;28;20065;-80
2021/10/30 04:10:24;;;;;;;47.92;27.60;;;6.60;99.90;;;;;;4899562;28;20105;-82
2021/10/30 04:12:51;;;;;;;43.17;25.33;;;6.70;99.90;;;;;;4955629;28;20177;-85
2021/10/30 04:15:19;;;;;;;44.05;28.05;;;6.60;99.90;;;;;;4941518;28;20065;-85
2021/10/30 04:17:46;;;;;;;42.03;26.17;;;6.80;99.90;;;;;;4957094;28;20055;-87
2021/10/30 04:20:13;;;;;;;36.83;24.75;;;6.90;99.90;;;;;;4941583;28;20125;-89
2021/10/30 04:22:41;;;;;;;37.80;23.35;;;6.80;99.90;;;;;;4940277;28;20060;-85
2021/10/30 04:25:09;;;;;;;31.30;22.45;;;6.90;99.90;;;;;;4957449;28;20766;-91
2021/10/30 04:27:38;;;;;;;31.02;21.83;;;6.50;99.90;;;;;;4960508;28;20442;-88
2021/10/30 04:30:07;;;;;;;36.63;22.55;;;6.60;99.90;;;;;;4960192;28;20049;-87
2021/10/30 04:32:36;;;;;;;36.25;21.67;;;6.60;99.90;;;;;;4944323;28;20054;-88
2021/10/30 04:35:07;;;;;;;31.30;20.95;;;6.50;99.90;;;;;;4951543;28;20069;-86
2021/10/30 04:37:35;;;;;;;26.85;20.42;;;6.50;99.90;;;;;;4957796;28;20050;-88
2021/10/30 04:40:04;;;;;;;33.30;22.73;;;6.60;99.90;;;;;;4957450;28;20050;-89
2021/10/30 04:42:32;;;;;;;32.55;21.27;;;6.50;99.90;;;;;;4972099;28;20051;-86
2021/10/30 04:44:59;;;;;;;32.13;21.10;;;6.50;99.90;;;;;;4956661;28;20129;-87
2021/10/30 04:47:28;;;;;;;30.55;19.38;;;6.50;99.90;;;;;;4954572;28;20046;-85
2021/10/30 04:49:56;;;;;;;31.92;21.77;;;6.50;99.90;;;;;;4920484;29;20146;-82
2021/10/30 04:52:23;;;;;;;30.55;21.10;;;6.60;99.90;;;;;;4958406;28;21449;-83
2021/10/30 04:54:51;;;;;;;32.33;22.77;;;6.50;99.90;;;;;;4943448;28;20043;-83
2021/10/30 04:57:18;;;;;;;39.13;23.63;;;6.30;99.90;;;;;;4955111;28;20538;-84
2021/10/30 04:59:46;;;;;;;31.92;21.77;;;6.10;99.90;;;;;;4956755;28;20105;-83
2021/10/30 05:02:14;;;;;;;31.23;23.10;;;6.10;99.90;;;;;;4969644;28;20046;-83
2021/10/30 05:04:41;;;;;;;35.35;23.08;;;6.10;99.90;;;;;;4947189;28;20074;-82
2021/10/30 05:07:15;;;;;;;38.45;23.60;;;6.10;99.90;;;;;;4958316;28;20130;-84
2021/10/30 05:09:46;;;;;;;32.83;22.30;;;6.10;99.90;;;;;;4947735;28;20059;-86
2021/10/30 05:12:13;;;;;;;34.25;24.40;;;6.30;99.90;;;;;;4939866;28;20058;-86
2021/10/30 05:14:41;;;;;;;36.15;23.25;;;6.20;99.90;;;;;;4955711;28;20059;-79
2021/10/30 05:17:08;;;;;;;36.28;24.15;;;6.10;99.90;;;;;;4973253;28;20039;-82
2021/10/30 05:19:35;;;;;;;34.80;23.27;;;6.10;99.90;;;;;;4973620;28;20052;-85
2021/10/30 05:22:03;;;;;;;38.20;24.75;;;6.10;99.90;;;;;;4955975;28;20043;-82
2021/10/30 05:24:30;;;;;;;37.33;24.75;;;6.20;99.90;;;;;;4972494;28;20049;-82
2021/10/30 05:26:57;;;;;;;36.72;24.67;;;6.10;99.90;;;;;;4955988;28;20039;-85
2021/10/30 05:29:25;;;;;;;37.38;24.77;;;5.90;99.90;;;;;;4955465;28;20128;-87
2021/10/30 05:31:52;;;;;;;38.22;24.92;;;6.10;99.90;;;;;;4955424;28;20046;-80
2021/10/30 05:34:19;;;;;;;39.70;26.67;;;6.40;99.90;;;;;;4954985;28;20113;-82
2021/10/30 05:36:54;;;;;;;48.15;29.05;;;6.20;99.90;;;;;;4955187;28;20407;-83
2021/10/30 05:39:23;;;;;;;167.50;92.82;;;6.50;99.90;;;;;;4971210;28;20498;-82
2021/10/30 05:41:50;;;;;;;91.82;52.50;;;6.60;99.90;;;;;;4899052;28;20134;-86
2021/10/30 05:44:18;;;;;;;65.40;41.38;;;6.80;99.90;;;;;;4965321;28;20102;-82
2021/10/30 05:46:46;;;;;;;59.83;35.13;;;6.50;99.90;;;;;;4947383;28;20129;-84
2021/10/30 05:49:14;;;;;;;58.92;38.03;;;6.40;99.90;;;;;;4946779;28;20046;-89
2021/10/30 05:51:42;;;;;;;76.30;46.65;;;6.30;99.90;;;;;;4954747;28;20051;-86
2021/10/30 05:54:09;;;;;;;58.40;37.83;;;6.50;99.90;;;;;;4946660;28;20045;-82
2021/10/30 05:56:37;;;;;;;60.10;36.95;;;6.60;99.90;;;;;;4944003;28;20137;-83
2021/10/30 06:07:51;;;;;;;46.10;28.75;;;6.70;99.90;;;;;;4914868;28;20135;-88
2021/10/30 06:10:35;;;;;;;47.78;29.08;;;6.80;99.90;;;;;;4937596;28;20059;-83
2021/10/30 06:13:02;;;;;;;40.60;28.77;;;7.00;99.90;;;;;;4940139;28;20066;-89
2021/10/30 06:15:59;;;;;;;41.35;27.27;;;7.20;99.90;;;;;;4939452;28;20051;-84
2021/10/30 06:18:30;;;;;;;37.60;26.63;;;7.00;99.90;;;;;;4941929;28;20055;-84
2021/10/30 06:20:57;;;;;;;39.40;28.08;;;7.00;99.90;;;;;;4956288;28;20082;-86
2021/10/30 06:23:25;;;;;;;37.50;25.77;;;7.00;99.90;;;;;;4955193;28;20042;-90
2021/10/30 06:25:53;;;;;;;41.88;27.17;;;7.20;99.90;;;;;;4942494;28;20074;-86
2021/10/30 06:28:20;;;;;;;47.92;27.73;;;7.30;99.90;;;;;;4941852;28;20472;-88
2021/10/30 06:30:48;;;;;;;40.10;26.65;;;7.30;99.90;;;;;;4941126;28;20054;-86
2021/10/30 06:36:36;;;;;;;43.65;24.17;;;7.20;99.90;;;;;;4957629;28;20075;-85
2021/10/30 06:39:29;;;;;;;42.38;25.20;;;7.20;99.90;;;;;;4940036;29;20070;-87
2021/10/30 06:41:56;;;;;;;40.72;25.40;;;7.20;99.90;;;;;;4929008;29;20050;-85
2021/10/30 06:44:36;;;;;;;44.47;28.25;;;7.30;99.90;;;;;;4924725;29;20063;-85
2021/10/30 06:47:03;;;;;;;39.83;27.20;;;7.30;99.90;;;;;;4938983;29;20298;-85
2021/10/30 06:49:35;;;;;;;53.38;27.27;;;7.40;99.90;;;;;;4953465;28;20055;-88
2021/10/30 06:52:04;;;;;;;46.42;26.08;;;7.50;99.90;;;;;;4959411;28;20498;-85
2021/10/30 06:54:31;;;;;;;40.20;25.05;;;7.70;99.90;;;;;;4958153;28;20145;-88
2021/10/30 06:57:07;;;;;;;95.95;54.75;;;7.70;99.90;;;;;;4948032;29;20070;-84
2021/10/30 06:59:35;;;;;;;98.43;55.25;;;8.00;99.90;;;;;;4922411;29;20039;-80
2021/10/30 07:02:04;;;;;;;70.95;42.25;;;8.30;99.90;;;;;;4923524;29;20499;-82
2021/10/30 07:04:34;;;;;;;43.75;29.80;;;8.30;99.90;;;;;;4958164;29;20122;-85
2021/10/30 07:07:02;;;;;;;;;;;8.20;99.90;;;;;;4957420;29;20150;-82
2021/10/30 07:09:29;;;;;;;34.78;24.08;;;8.30;99.90;;;;;;4958875;29;20274;-82
2021/10/30 07:11:57;;;;;;;36.08;23.85;;;8.30;99.90;;;;;;4946257;29;20052;-83
2021/10/30 07:14:44;;;;;;;36.45;24.05;;;8.50;99.90;;;;;;4942817;29;20062;-80
2021/10/30 07:17:11;;;;;;;38.47;24.35;;;8.60;99.90;;;;;;4941071;29;20051;-82
2021/10/30 07:19:39;;;;;;;39.15;22.95;;;8.80;99.90;;;;;;4956625;29;20074;-84
2021/10/30 07:22:06;;;;;;;37.00;24.77;;;9.10;99.90;;;;;;4938428;29;20047;-85
2021/10/30 07:24:37;;;;;;;36.17;24.73;;;9.30;99.90;;;;;;4955749;29;20122;-89
2021/10/30 07:27:31;;;;;;;39.47;26.25;;;9.30;99.90;;;;;;4941670;29;20134;-87
2021/10/30 07:29:59;;;;;;;33.63;24.17;;;9.80;99.90;;;;;;4940741;29;20075;-86
2021/10/30 07:32:27;;;;;;;39.40;23.23;;;10.10;99.90;;;;;;4939760;29;20051;-90
2021/10/30 07:34:54;;;;;;;38.85;25.77;;;10.40;99.90;;;;;;4941420;29;20078;-88
2021/10/30 07:37:29;;;;;;;36.30;24.92;;;10.30;99.90;;;;;;4939710;29;20523;-88
2021/10/30 07:40:00;;;;;;;36.45;25.38;;;10.30;99.90;;;;;;4924990;29;20048;-86
2021/10/30 07:42:27;;;;;;;;;;;10.50;99.90;;;;;;4938082;29;20146;-79
2021/10/30 07:44:55;;;;;;;39.95;24.77;;;10.70;99.90;;;;;;4953343;28;19966;-78
2021/10/30 07:47:22;;;;;;;40.60;24.50;;;10.80;99.90;;;;;;4955838;28;20066;-81
2021/10/30 07:49:50;;;;;;;61.38;37.67;;;11.20;99.90;;;;;;4973277;28;20075;-83
2021/10/30 07:52:17;;;;;;;66.53;41.35;;;11.80;99.90;;;;;;4972803;28;20115;-84
2021/10/30 07:54:47;;;;;;;76.27;49.20;;;11.90;99.90;;;;;;4973059;28;20372;-83
2021/10/30 07:57:14;;;;;;;43.67;30.42;;;12.10;99.90;;;;;;4955493;28;20138;-83
2021/10/30 07:59:42;;;;;;;42.60;28.17;;;12.00;99.90;;;;;;4955139;28;20495;-80
2021/10/30 08:02:09;;;;;;;40.95;27.98;;;12.00;99.90;;;;;;4963841;28;20098;-82
2021/10/30 08:04:37;;;;;;;42.10;28.88;;;12.00;99.90;;;;;;4936398;29;20047;-80
2021/10/30 08:07:05;;;;;;;36.55;25.17;;;12.00;99.90;;;;;;4936373;29;20428;-82
2021/10/30 08:09:36;;;;;;;43.72;24.30;;;12.20;99.90;;;;;;4953042;29;20085;-82
2021/10/30 08:12:04;;;;;;;49.25;27.60;;;11.90;99.90;;;;;;4921287;29;20057;-81
2021/10/30 08:14:31;;;;;;;48.35;25.27;;;12.10;99.90;;;;;;4952810;29;20053;-84
2021/10/30 08:17:03;;;;;;;36.20;23.65;;;13.30;99.90;;;;;;4953041;29;20141;-80
2021/10/30 08:19:55;;;;;;;35.58;23.17;;;13.60;99.90;;;;;;4920423;29;20075;-81
2021/10/30 08:22:22;;;;;;;34.97;25.67;;;13.50;99.90;;;;;;4933911;29;20750;-79
2021/10/30 08:24:54;;;;;;;40.95;23.35;;;13.10;99.90;;;;;;4903024;29;20086;-81
2021/10/30 08:27:21;;;;;;;33.63;25.05;;;12.80;99.90;;;;;;4953951;28;20057;-87
2021/10/30 08:29:52;;;;;;;74.47;46.53;;;12.80;99.90;;;;;;5066667;23;20087;-86
2021/10/30 08:32:23;;;;;;;177.88;102.05;;;13.30;99.90;;;;;;4935159;29;20123;-82
2021/10/30 08:34:55;;;;;;;41.55;31.65;;;13.60;99.90;;;;;;4917041;29;20035;-85
2021/10/30 08:37:26;;;;;;;37.50;24.88;;;13.70;99.90;;;;;;4935809;29;20039;-82
2021/10/30 08:40:13;;;;;;;29.45;22.15;;;13.80;99.90;;;;;;4933091;29;20387;-85
2021/10/30 08:43:21;;;;;;;31.67;20.80;;;13.50;99.90;;;;;;4932947;29;20048;-81
2021/10/30 08:45:50;;;;;;;30.58;21.45;;;13.60;99.90;;;;;;4932467;29;20095;-84
2021/10/30 08:48:25;;;;;;;32.90;21.80;;;14.20;99.90;;;;;;4933427;29;20047;-83
2021/10/30 08:50:54;;;;;;;32.85;21.33;;;14.00;99.90;;;;;;4933172;29;20048;-79
2021/10/30 08:53:25;;;;;;;105.70;60.25;;;14.10;99.90;;;;;;4932113;29;20047;-77
2021/10/30 08:55:53;;;;;;;62.72;39.67;;;14.30;99.90;;;;;;4933250;29;20043;-79
2021/10/30 08:58:21;;;;;;;63.72;39.30;;;15.00;99.90;;;;;;4934972;28;20134;-81
2021/10/30 09:00:54;;;;;;;38.42;25.48;;;15.70;99.90;;;;;;4954676;28;20050;-80
2021/10/30 09:03:23;;;;;;;35.28;24.23;;;15.70;99.60;;;;;;4986467;28;20056;-79
2021/10/30 09:05:53;;;;;;;30.15;21.23;;;16.10;99.30;;;;;;4954864;28;20045;-78
2021/10/30 09:08:24;;;;;;;27.52;20.83;;;15.20;99.80;;;;;;4954541;28;20057;-78
2021/10/30 09:11:01;;;;;;;28.38;20.60;;;15.00;99.70;;;;;;4971545;28;20070;-79
2021/10/30 09:13:31;;;;;;;28.25;20.33;;;14.90;99.80;;;;;;4972011;28;20043;-78
2021/10/30 09:16:00;;;;;;;31.75;21.35;;;14.80;99.60;;;;;;4972022;28;20047;-79
2021/10/30 09:18:29;;;;;;;32.45;21.52;;;14.90;99.30;;;;;;4954711;28;20045;-81
2021/10/30 09:21:12;;;;;;;35.55;21.52;;;15.20;99.00;;;;;;4971801;28;20121;-84
2021/10/30 09:23:42;;;;;;;;;;;15.40;98.90;;;;;;4935897;29;20142;-84
2021/10/30 09:26:19;;;;;;;29.33;21.42;;;15.60;99.00;;;;;;4935817;29;20024;-81
2021/10/30 09:29:13;;;;;;;29.58;21.70;;;15.40;99.40;;;;;;4971750;28;20035;-82
2021/10/30 09:31:40;;;;;;;30.50;20.98;;;16.00;99.50;;;;;;4970236;28;20047;-80
2021/10/30 09:34:08;;;;;;;33.38;21.70;;;15.80;97.40;;;;;;4970448;28;20074;-80
2021/10/30 09:37:03;;;;;;;28.60;21.05;;;16.10;97.70;;;;;;4971024;28;20035;-82
2021/10/30 09:39:31;;;;;;;26.42;18.70;;;16.30;97.60;;;;;;4954027;28;20066;-80
2021/10/30 09:41:58;;;;;;;22.40;15.98;;;15.70;97.20;;;;;;4971233;28;20371;-80
2021/10/30 09:44:27;;;;;;;23.83;16.80;;;15.50;97.10;;;;;;4938627;28;20054;-84
2021/10/30 09:47:00;;;;;;;26.35;18.10;;;15.90;97.10;;;;;;4954360;28;20058;-83
2021/10/30 09:49:30;;;;;;;26.35;17.33;;;16.40;96.80;;;;;;4956699;28;20438;-81
2021/10/30 09:52:06;;;;;;;21.58;14.85;;;16.90;96.10;;;;;;4951751;28;20043;-79
2021/10/30 09:54:41;;;;;;;18.35;14.45;;;17.00;94.00;;;;;;4954337;28;20160;-84
2021/10/30 09:57:12;;;;;;;70.55;44.75;;;17.30;94.00;;;;;;4954206;28;20762;-78
2021/10/30 09:59:40;;;;;;;131.95;78.78;;;17.90;93.20;;;;;;4954501;28;20062;-78
2021/10/30 10:02:09;;;;;;;81.25;49.10;;;18.20;93.00;;;;;;4971200;28;20042;-85
2021/10/30 10:04:40;;;;;;;40.35;27.27;;;18.80;93.00;;;;;;4971599;28;20042;-82
2021/10/30 10:07:13;;;;;;;21.83;15.80;;;18.70;90.00;;;;;;4954219;28;20041;-78
2021/10/30 10:09:41;;;;;;;24.25;15.52;;;18.60;87.10;;;;;;4955473;28;20443;-85
2021/10/30 10:12:27;;;;;;;19.05;11.95;;;18.40;87.90;;;;;;4958582;28;20047;-85
2021/10/30 10:14:55;;;;;;;19.05;11.90;;;17.30;86.50;;;;;;4957823;28;20105;-84
2021/10/30 10:17:53;;;;;;;18.15;12.85;;;17.70;90.20;;;;;;4958144;28;20085;-86
2021/10/30 10:20:26;;;;;;;19.10;11.75;;;18.30;88.40;;;;;;4959101;28;20442;-87
2021/10/30 10:22:53;;;;;;;19.17;11.75;;;18.80;86.20;;;;;;4977666;28;20126;-83
2021/10/30 10:25:32;;;;;;;18.13;11.98;;;18.80;84.20;;;;;;4958410;28;20071;-87
2021/10/30 10:28:19;;;;;;;18.60;11.20;;;19.20;83.20;;;;;;4973815;28;20137;-86
2021/10/30 10:30:54;;;;;;;16.67;10.93;;;19.40;83.40;;;;;;4956512;28;20073;-87
2021/10/30 10:33:23;;;;;;;16.15;11.60;;;19.40;81.30;;;;;;4942119;28;20402;-84
2021/10/30 10:36:18;;;;;;;17.08;11.27;;;19.60;80.70;;;;;;4974619;28;20062;-87
2021/10/30 10:39:01;;;;;;;12.10;8.73;;;19.80;80.50;;;;;;4959439;28;20117;-88
2021/10/30 10:41:46;;;;;;;12.23;8.40;;;19.50;76.70;;;;;;4959126;28;20043;-89
2021/10/30 10:44:26;;;;;;;14.10;9.55;;;19.30;77.00;;;;;;4943380;28;20054;-83
2021/10/30 10:46:59;;;;;;;13.43;8.82;;;19.80;77.80;;;;;;4958585;28;20085;-88
2021/10/30 10:49:39;;;;;;;12.00;8.20;;;19.50;77.00;;;;;;4960030;28;20109;-88
2021/10/30 10:52:30;;;;;;;13.00;9.07;;;20.00;79.30;;;;;;4961254;28;20062;-89
2021/10/30 10:55:04;;;;;;;16.52;9.27;;;20.50;79.70;;;;;;4963057;28;20061;-88
2021/10/30 10:57:44;;;;;;;15.88;9.98;;;20.50;77.40;;;;;;4994438;28;20042;-87
2021/10/30 11:00:19;;;;;;;13.02;9.40;;;20.50;76.10;;;;;;4961977;28;20054;-87
2021/10/30 11:03:03;;;;;;;13.18;9.10;;;20.10;74.90;;;;;;4961852;28;20057;-90
2021/10/30 11:05:37;;;;;;;;;;;20.50;75.20;;;;;;4977971;28;20069;-88
2021/10/30 11:08:27;;;;;;;17.52;10.18;;;20.80;75.70;;;;;;4963340;28;19921;-86
2021/10/30 11:11:16;;;;;;;15.38;9.52;;;20.90;74.00;;;;;;4961677;28;20126;-86
2021/10/30 11:13:57;;;;;;;15.65;8.80;;;20.30;73.60;;;;;;4976677;28;20094;-88
2021/10/30 11:16:32;;;;;;;13.63;8.60;;;20.70;75.60;;;;;;4976447;28;20060;-83
2021/10/30 11:19:13;;;;;;;34.63;22.63;;;21.00;73.80;;;;;;4992170;28;20081;-80
2021/10/30 11:21:46;;;;;;;32.17;24.85;;;20.60;73.20;;;;;;4992035;28;20043;-82
2021/10/30 11:24:27;;;;;;;31.25;22.65;;;20.30;74.20;;;;;;4993755;28;20046;-84
2021/10/30 11:27:05;;;;;;;18.23;13.38;;;19.60;73.40;;;;;;4993072;28;20042;-83
2021/10/30 11:29:34;;;;;;;92.20;60.65;;;20.40;75.80;;;;;;4990239;28;20066;-89
2021/10/30 11:32:04;;;;;;;35.53;27.13;;;20.60;73.50;;;;;;4940764;28;20130;-89
2021/10/30 11:34:47;;;;;;;56.40;40.40;;;20.80;73.40;;;;;;4957180;28;20130;-83
2021/10/30 11:37:17;;;;;;;63.67;42.72;;;20.80;72.80;;;;;;4973439;28;20340;-82
2021/10/30 11:39:46;;;;;;;51.28;35.17;;;21.30;73.00;;;;;;4956019;28;20066;-85
2021/10/30 11:42:14;;;;;;;55.20;38.45;;;21.60;71.60;;;;;;4940489;28;20102;-81
2021/10/30 11:44:54;;;;;;;31.80;20.60;;;21.90;71.40;;;;;;4956171;28;20121;-80
2021/10/30 11:47:25;;;;;;;17.17;11.87;;;22.10;71.00;;;;;;4956169;28;20098;-83
2021/10/30 11:49:52;;;;;;;;;;;21.60;70.10;;;;;;4954940;28;20134;-83
2021/10/30 11:52:20;;;;;;;15.05;10.52;;;21.80;70.30;;;;;;4953879;29;20279;-83
2021/10/30 11:54:54;;;;;;;15.15;10.35;;;22.30;70.30;;;;;;4953101;29;20506;-81
2021/10/30 11:57:21;;;;;;;15.70;10.20;;;21.80;69.40;;;;;;4920813;29;20046;-82
2021/10/30 11:59:57;;;;;;;14.65;10.13;;;21.90;68.80;;;;;;4936600;29;20122;-82
2021/10/30 12:02:27;;;;;;;15.98;10.18;;;22.00;68.60;;;;;;4936121;29;20127;-83
2021/10/30 12:05:05;;;;;;;15.75;10.35;;;20.70;69.60;;;;;;4952266;29;20055;-84
2021/10/30 12:07:37;;;;;;;17.65;10.25;;;20.30;70.60;;;;;;4953251;29;20394;-83
2021/10/30 12:10:05;;;;;;;13.43;8.85;;;20.60;72.50;;;;;;4952060;29;20051;-83
2021/10/30 12:12:33;;;;;;;19.63;9.73;;;20.50;69.90;;;;;;4920568;29;20058;-82
2021/10/30 12:15:00;;;;;;;13.85;9.35;;;20.70;71.80;;;;;;4953031;29;20058;-85
2021/10/30 12:17:30;;;;;;;14.45;10.05;;;21.50;71.30;;;;;;4920058;29;20047;-83
2021/10/30 12:20:05;;;;;;;15.50;9.45;;;22.20;68.60;;;;;;4936263;29;20058;-80
2021/10/30 12:22:43;;;;;;;33.97;24.75;;;24.00;64.80;;;;;;4952984;29;20073;-82
2021/10/30 12:25:26;;;;;;;18.98;13.27;;;27.90;57.90;;;;;;4952870;29;20122;-79
2021/10/30 12:27:56;;;;;;;17.60;12.68;;;28.40;52.70;;;;;;4954859;28;20431;-82
2021/10/30 12:30:34;;;;;;;18.52;12.23;;;29.50;50.50;;;;;;4969289;28;20059;-79
2021/10/30 12:33:13;;;;;;;14.38;9.77;;;30.20;48.70;;;;;;4962101;28;20054;-83
2021/10/30 12:35:44;;;;;;;13.45;9.93;;;30.90;47.40;;;;;;4961959;28;20444;-83
2021/10/30 12:38:14;;;;;;;;;;;30.80;47.40;;;;;;4961751;28;20038;-84
2021/10/30 12:40:43;;;;;;;16.13;9.25;;;31.00;46.90;;;;;;4956365;28;19921;-83
2021/10/30 12:43:13;;;;;;;14.65;10.00;;;30.90;46.30;;;;;;4965042;28;20034;-86
2021/10/30 12:45:48;;;;;;;13.23;9.73;;;30.00;46.40;;;;;;4949591;28;20124;-84
2021/10/30 12:48:18;;;;;;;13.05;10.25;;;29.70;47.20;;;;;;4964863;28;20129;-84
2021/10/30 12:50:58;;;;;;;14.95;11.13;;;27.40;50.70;;;;;;4974579;28;20509;-86
2021/10/30 12:53:40;;;;;;;15.07;10.50;;;24.90;53.50;;;;;;4972707;28;20050;-85
2021/10/30 12:56:10;;;;;;;16.23;10.27;;;24.00;55.00;;;;;;4974532;28;20042;-84
2021/10/30 12:58:39;;;;;;;;;;;23.60;56.70;;;;;;4990715;28;20062;-86
2021/10/30 13:01:19;;;;;;;12.30;9.55;;;23.30;57.10;;;;;;4974261;28;20353;-81
2021/10/30 13:03:48;;;;;;;;;;;23.50;57.40;;;;;;4973978;28;20515;-80
2021/10/30 13:06:20;;;;;;;13.85;9.45;;;23.60;57.10;;;;;;4973689;28;19997;-81
2021/10/30 13:08:50;;;;;;;12.77;9.93;;;23.60;56.50;;;;;;4974699;28;20721;-81
2021/10/30 13:11:18;;;;;;;14.77;10.77;;;23.30;56.80;;;;;;4975380;28;20104;-82
2021/10/30 13:13:47;;;;;;;14.13;9.32;;;23.00;57.60;;;;;;4974910;28;20093;-82
2021/10/30 13:16:15;;;;;;;18.92;10.00;;;23.00;57.90;;;;;;4975156;28;20046;-81
2021/10/30 13:18:43;;;;;;;13.02;9.55;;;23.50;56.90;;;;;;4992105;28;20512;-83
2021/10/30 13:21:24;;;;;;;12.52;9.25;;;24.10;56.70;;;;;;4991193;28;20041;-83
2021/10/30 13:23:55;;;;;;;13.90;9.30;;;24.20;56.70;;;;;;4974818;28;20130;-82
2021/10/30 13:26:24;;;;;;;14.75;9.20;;;23.50;56.40;;;;;;4959737;28;20045;-83
2021/10/30 13:28:52;;;;;;;15.88;8.77;;;23.50;57.40;;;;;;4991394;28;20050;-85
2021/10/30 13:31:21;;;;;;;17.13;10.52;;;23.90;56.90;;;;;;4955363;28;20138;-81
2021/10/30 13:33:49;;;;;;;15.90;9.63;;;23.40;57.50;;;;;;4971949;28;20078;-85
2021/10/30 13:36:21;;;;;;;13.73;9.77;;;23.80;58.10;;;;;;4955817;28;20696;-82
2021/10/30 13:38:50;;;;;;;15.02;9.93;;;23.30;57.70;;;;;;4972830;28;20118;-83
2021/10/30 13:41:19;;;;;;;14.70;10.73;;;22.40;59.90;;;;;;4955601;28;20150;-83
2021/10/30 13:43:47;;;;;;;13.75;9.70;;;22.30;61.60;;;;;;4956933;28;20414;-84
2021/10/30 13:46:20;;;;;;;13.98;9.60;;;22.70;61.20;;;;;;4959494;28;20050;-82
2021/10/30 13:48:50;;;;;;;13.00;9.43;;;22.20;61.90;;;;;;4936468;29;20047;-80
2021/10/30 13:51:20;;;;;;;16.35;10.20;;;22.40;60.10;;;;;;4924755;29;20051;-83
2021/10/30 13:53:47;;;;;;;13.70;9.45;;;21.70;62.00;;;;;;4939703;29;20151;-82